Latest Weather Observations for Strahan

IDT60801

Issued at 5:02 pm EST Monday 27 April 2015 (issued every 30 minutes, with the page automatically refreshed every 10 minutes)

About weather observations | Map of weather stations | Latest weather observations for TAS | Other Formats
Station Details ID: 097072 Name: STRAHAN AERODROME Lat: -42.16 Lon: 145.29 Height: 21.0 m
Data from the previous 72 hours. | See also: Recent months at Strahan
Date/Time
EST
Temp
°C
App
Temp
°C
Dew
Point
Rel
Hum
%
Delta-T
°C
Wind Press
QNH
hPa
Press
MSL
hPa
Rain
since 9 am
mm
Dir
 
Spd
km/h
Gust
km/h
Spd
kts
Gust
kts
27/05:00pm 10.7 7.6 7.2 79 1.7 SSW 13 19 7 10 1022.7 1022.7 1.0
27/04:30pm 12.5 8.7 7.4 71 2.5 SW 17 20 9 11 1022.5 1022.5 1.0
27/04:00pm 12.5 8.9 6.8 68 2.7 SSW 15 20 8 11 1022.4 1022.4 1.0
27/03:30pm 12.9 8.7 7.6 70 2.6 SSW 19 24 10 13 1022.2 1022.2 1.0
27/03:00pm 12.9 9.0 7.1 68 2.8 SW 17 22 9 12 1022.0 1022.0 1.0
27/02:30pm 12.2 10.4 9.4 83 1.4 SE 9 11 5 6 1021.7 1021.7 1.0
27/02:00pm 12.9 10.2 8.8 76 2.0 SSE 13 19 7 10 1021.5 1021.5 1.0
27/01:30pm 11.9 8.5 9.3 84 1.3 SSW 17 24 9 13 1021.5 1021.5 1.0
27/01:00pm 11.3 10.1 9.4 88 1.0 ESE 6 11 3 6 1021.6 1021.6 1.0
27/12:30pm 12.2 9.9 10.3 88 1.0 SE 13 19 7 10 1021.8 1021.8 1.0
27/12:00pm 10.7 8.0 9.0 89 0.8 SE 13 19 7 10 1022.0 1022.0 1.0
27/11:30am 11.0 9.7 9.1 88 0.9 SSE 6 13 3 7 1021.9 1021.9 1.0
27/11:00am 11.2 9.7 10.4 95 0.4 E 9 11 5 6 1022.0 1022.0 1.0
27/10:59am 10.8 9.1 9.9 94 0.5 E 9 11 5 6 1022.0 1022.0 1.0
27/10:30am 10.6 8.4 9.2 91 0.7 ESE 11 15 6 8 1021.8 1021.8 0.6
27/10:27am 10.6 9.1 9.2 91 0.7 ESE 7 13 4 7 1021.8 1021.8 0.6
27/10:00am 10.4 8.8 10.1 98 0.2 E 9 13 5 7 1021.4 1021.4 0.2
27/09:39am 9.8 6.8 9.3 97 0.2 ESE 15 20 8 11 1021.3 1021.3 0.2
27/09:30am 9.6 6.5 9.0 96 0.3 SE 15 22 8 12 1021.2 1021.2 0.2
27/09:22am 9.7 7.0 8.9 95 0.4 ESE 13 26 7 14 1021.2 1021.2 0.2
27/09:00am 10.1 9.0 9.8 98 0.2 NE 6 9 3 5 1021.0 1021.0 6.6
27/08:30am 9.6 7.8 9.3 98 0.1 ESE 9 13 5 7 1020.8 1020.8 6.6
27/08:17am 9.3 7.0 9.0 98 0.1 S 11 15 6 8 1020.6 1020.6 6.6
27/08:06am 9.2 9.0 8.9 98 0.1 CALM 0 13 0 7 1020.6 1020.6 6.6
27/08:00am 9.0 8.7 8.5 97 0.2 CALM 0 0 0 0 1020.5 1020.5 6.4
27/07:37am 8.9 5.7 8.5 97 0.2 SW 15 24 8 13 1020.2 1020.2 6.4
27/07:30am 8.8 5.2 8.2 96 0.3 SW 17 22 9 12 1020.1 1020.1 6.2
27/07:00am 8.6 4.6 8.2 97 0.2 SW 19 26 10 14 1019.7 1019.7 6.2
27/06:30am 8.2 6.0 7.8 97 0.2 SSW 9 11 5 6 1019.3 1019.3 6.2
27/06:29am 8.2 6.0 7.8 97 0.2 SSW 9 11 5 6 1019.3 1019.3 6.2
27/06:13am 8.5 6.0 8.1 97 0.2 SW 11 19 6 10 1019.3 1019.3 6.2
27/06:00am 8.1 5.9 7.7 97 0.2 W 9 9 5 5 1019.2 1019.2 6.0
27/05:30am 8.1 6.4 7.7 97 0.2 NW 6 7 3 4 1019.2 1019.2 6.0
27/05:00am 8.2 5.9 7.6 96 0.3 E 9 15 5 8 1019.0 1019.0 6.0
27/04:30am 7.9 5.1 7.1 95 0.4 S 11 13 6 7 1018.5 1018.5 5.8
27/04:00am 8.1 5.0 7.2 94 0.4 S 13 17 7 9 1018.3 1018.3 5.8
27/03:30am 8.5 5.1 7.6 94 0.4 SSW 15 20 8 11 1018.4 1018.4 5.8
27/03:00am 7.6 4.7 6.7 94 0.4 SSW 11 13 6 7 1018.2 1018.2 5.6
27/02:30am 8.5 5.5 7.6 94 0.4 SSW 13 20 7 11 1018.3 1018.3 5.6
27/02:00am 8.5 5.9 7.7 95 0.4 S 11 15 6 8 1018.3 1018.3 5.6
27/01:30am 8.7 6.5 7.8 94 0.4 SSE 9 17 5 9 1018.2 1018.2 5.6
27/01:00am 7.9 5.4 6.7 92 0.6 SSW 9 11 5 6 1018.1 1018.1 5.6
27/12:30am 8.7 5.7 7.6 93 0.5 SSW 13 17 7 9 1018.1 1018.1 5.6
27/12:00am 8.3 5.6 7.4 94 0.4 SSW 11 13 6 7 1018.1 1018.1 5.4
 
Date/Time
EST
Temp
°C
App
Temp
°C
Dew
Point
Rel
Hum
%
Delta-T
°C
Wind Press
QNH
hPa
Press
MSL
hPa
Rain
since 9 am
mm
Dir
 
Spd
km/h
Gust
km/h
Spd
kts
Gust
kts
26/11:30pm 8.1 5.0 7.2 94 0.4 SSW 13 17 7 9 1018.0 1018.0 5.4
26/11:00pm 8.2 6.4 7.3 94 0.4 S 6 9 3 5 1017.9 1017.9 5.4
26/10:30pm 8.7 5.7 7.8 94 0.4 SSW 13 20 7 11 1018.0 1018.0 5.4
26/10:00pm 7.8 5.4 6.9 94 0.4 S 9 11 5 6 1017.9 1017.9 5.4
26/09:30pm 8.8 6.6 7.9 94 0.4 WSW 9 11 5 6 1017.8 1017.8 5.0
26/09:00pm 8.6 5.2 7.5 93 0.5 SW 15 20 8 11 1017.7 1017.7 5.0
26/08:30pm 8.7 5.3 7.8 94 0.4 SW 15 24 8 13 1017.4 1017.4 5.0
26/08:00pm 8.7 5.7 7.8 94 0.4 S 13 19 7 10 1017.3 1017.3 5.0
26/07:46pm 8.7 6.1 7.8 94 0.4 SSW 11 17 6 9 1017.2 1017.2 5.0
26/07:30pm 8.8 4.7 7.9 94 0.4 SW 19 33 10 18 1017.2 1017.2 4.8
26/07:29pm 8.8 4.7 7.9 94 0.4 SW 19 33 10 18 1017.2 1017.2 4.8
26/07:07pm 8.7 5.7 7.6 93 0.5 S 13 17 7 9 1016.9 1016.9 4.6
26/07:00pm 8.8 4.7 7.7 93 0.5 SSW 19 33 10 18 1016.9 1016.9 4.6
26/06:51pm 9.0 4.3 7.8 92 0.6 SSW 22 35 12 19 1016.9 1016.9 4.4
26/06:30pm 9.2 5.9 8.0 92 0.6 WSW 15 19 8 10 1016.4 1016.4 4.2
26/06:00pm 9.1 6.5 7.7 91 0.7 SW 11 15 6 8 1016.0 1016.0 4.2
26/05:30pm 9.6 5.5 8.0 90 0.8 SSW 19 30 10 16 1015.5 1015.6 4.0
26/05:00pm 9.9 6.4 8.7 92 0.6 SW 17 24 9 13 1015.2 1015.3 4.0
26/04:30pm 10.9 9.3 10.1 95 0.4 SW 9 17 5 9 1015.0 1015.1 4.0
26/04:15pm 10.1 7.5 9.3 95 0.4 SW 13 17 7 9 1014.9 1015.0 4.0
26/04:00pm 10.1 6.2 9.3 95 0.4 SW 20 39 11 21 1014.9 1015.0 4.0
26/03:56pm 9.9 5.9 9.0 94 0.4 SSW 20 39 11 21 1015.0 1015.1 3.8
26/03:37pm 10.5 7.2 9.6 94 0.5 SSW 17 22 9 12 1014.7 1014.8 3.2
26/03:30pm 10.6 6.9 9.5 93 0.6 SW 19 28 10 15 1014.7 1014.8 3.2
26/03:23pm 10.5 6.1 9.1 91 0.7 WSW 22 33 12 18 1014.7 1014.8 3.2
26/03:00pm 11.1 7.9 9.9 92 0.6 WSW 17 20 9 11 1014.4 1014.5 3.0
26/02:40pm 10.6 6.1 8.4 86 1.1 WSW 22 41 12 22 1014.6 1014.7 2.8
26/02:30pm 12.2 9.0 10.1 87 1.1 W 17 26 9 14 1014.3 1014.4 1.8
26/02:00pm 12.3 9.9 10.0 86 1.2 WNW 13 17 7 9 1014.4 1014.5 1.8
26/01:30pm 11.8 9.4 8.8 82 1.5 W 11 22 6 12 1014.6 1014.7 1.8
26/01:00pm 11.7 10.2 9.1 84 1.3 NNW 7 13 4 7 1014.6 1014.7 1.6
26/12:45pm 11.5 10.4 9.9 90 0.8 N 6 7 3 4 1014.7 1014.8 1.6
26/12:30pm 10.7 9.2 9.3 91 0.7 NNW 7 9 4 5 1014.9 1015.0 1.6
26/12:26pm 10.7 9.2 9.1 90 0.8 NNW 7 9 4 5 1014.9 1015.0 1.6
26/12:20pm 10.8 9.5 9.2 90 0.8 NNW 6 9 3 5 1014.9 1015.0 1.4
26/12:03pm 10.6 9.2 8.7 88 0.9 WNW 6 11 3 6 1015.0 1015.1 1.4
26/12:00pm 10.5 8.8 8.4 87 1.0 WNW 7 13 4 7 1015.0 1015.1 1.4
26/11:53am 10.8 8.8 8.7 87 1.0 WNW 9 13 5 7 1015.0 1015.1 1.2
26/11:49am 10.9 8.5 8.7 86 1.1 NW 11 17 6 9 1015.1 1015.2 1.2
26/11:30am 11.6 10.4 10.2 91 0.7 N 7 13 4 7 1015.0 1015.1 1.2
26/11:00am 10.1 8.3 9.3 95 0.4 NNE 9 15 5 8 1015.5 1015.6 1.2
26/10:48am 9.8 7.5 9.0 95 0.4 NE 11 15 6 8 1015.5 1015.6 1.2
26/10:47am 9.8 7.5 9.0 95 0.4 NNE 11 15 6 8 1015.5 1015.6 1.2
26/10:30am 9.7 8.1 8.6 93 0.5 NNW 7 11 4 6 1015.7 1015.7 1.0
26/10:00am 9.4 7.7 7.5 88 0.9 NNW 6 7 3 4 1015.8 1015.8 0.4
26/09:51am 9.6 8.6 7.4 86 1.0 NW 2 6 1 3 1015.8 1015.8 0.2
26/09:33am 9.7 7.7 6.4 80 1.5 N 6 9 3 5 1015.8 1015.8 0.0
26/09:30am 9.7 7.7 6.4 80 1.5 NE 6 15 3 8 1015.8 1015.8 0.0
26/09:00am 9.5 7.0 6.4 81 1.4 NNE 9 13 5 7 1015.8 1015.8 0.2
26/08:30am 8.8 6.3 6.4 85 1.1 NNE 9 15 5 8 1015.5 1015.6 0.2
26/08:00am 8.5 5.6 6.5 87 0.9 ENE 11 17 6 9 1015.5 1015.6 0.2
26/07:30am 8.4 7.1 6.2 86 1.0 WSW 2 7 1 4 1015.9 1015.9 0.2
26/07:00am 8.6 5.6 6.1 84 1.1 WSW 11 17 6 9 1015.7 1015.7 0.2
26/06:30am 8.7 5.3 4.1 73 2.0 SSW 11 13 6 7 1015.3 1015.4 0.2
26/06:00am 9.0 4.4 3.6 69 2.3 SW 17 20 9 11 1015.2 1015.3 0.2
26/05:30am 9.2 4.7 4.0 70 2.3 SW 17 22 9 12 1014.9 1015.0 0.2
26/05:00am 9.1 5.3 3.7 69 2.3 SW 13 17 7 9 1014.8 1014.9 0.2
26/04:30am 9.2 5.0 4.0 70 2.3 SW 15 20 8 11 1014.6 1014.7 0.2
26/04:00am 9.1 6.1 4.1 71 2.2 WSW 9 13 5 7 1014.5 1014.6 0.2
26/03:30am 9.2 5.0 3.8 69 2.4 WSW 15 19 8 10 1014.5 1014.6 0.2
26/03:00am 9.0 5.3 4.2 72 2.1 WSW 13 17 7 9 1014.5 1014.6 0.2
26/02:30am 8.7 7.4 5.8 82 1.3 SSW 2 9 1 5 1014.7 1014.8 0.2
26/02:00am 8.6 7.3 5.9 83 1.2 SSW 2 9 1 5 1014.7 1014.8 0.2
26/01:30am 8.8 6.6 5.5 80 1.5 E 6 9 3 5 1014.7 1014.8 0.2
26/01:00am 8.7 6.6 5.8 82 1.3 NNW 6 9 3 5 1014.6 1014.7 0.2
26/12:30am 8.7 7.0 5.8 82 1.3 NE 4 7 2 4 1014.6 1014.7 0.2
26/12:00am 8.9 6.7 5.1 77 1.7 ENE 6 7 3 4 1014.6 1014.7 0.2
 
Date/Time
EST
Temp
°C
App
Temp
°C
Dew
Point
Rel
Hum
%
Delta-T
°C
Wind Press
QNH
hPa
Press
MSL
hPa
Rain
since 9 am
mm
Dir
 
Spd
km/h
Gust
km/h
Spd
kts
Gust
kts
25/11:30pm 9.2 7.4 5.2 76 1.8 E 4 7 2 4 1014.6 1014.7 0.2
25/11:00pm 9.8 7.1 5.4 74 2.0 S 9 13 5 7 1014.6 1014.7 0.2
25/10:30pm 9.9 6.7 5.1 72 2.2 S 11 17 6 9 1014.7 1014.8 0.2
25/10:00pm 10.1 6.5 4.9 70 2.3 S 13 20 7 11 1014.8 1014.9 0.2
25/09:30pm 10.0 6.4 5.0 71 2.3 S 13 19 7 10 1014.6 1014.7 0.2
25/09:00pm 10.0 5.6 5.0 71 2.3 SSE 17 22 9 12 1014.4 1014.5 0.2
25/08:30pm 10.3 5.7 5.5 72 2.2 SSE 19 24 10 13 1014.3 1014.4 0.2
25/08:00pm 10.4 5.6 5.6 72 2.2 SSE 20 28 11 15 1014.2 1014.2 0.2
25/07:30pm 10.4 5.6 5.6 72 2.2 SSE 20 30 11 16 1014.0 1014.0 0.2
25/07:00pm 10.6 5.8 5.6 71 2.3 SSE 20 30 11 16 1013.7 1013.7 0.2
25/06:30pm 10.6 5.5 5.8 72 2.2 SSE 22 30 12 16 1013.4 1013.4 0.2
25/06:00pm 10.8 5.3 6.0 72 2.2 S 24 33 13 18 1012.9 1012.9 0.2
25/05:30pm 11.1 5.7 6.5 73 2.2 SSW 24 30 13 16 1012.2 1012.2 0.2
25/05:00pm 11.7 7.2 6.2 69 2.6 S 19 30 10 16 1011.9 1011.9 0.2
25/04:30pm 12.2 7.2 6.5 68 2.7 S 22 30 12 16 1011.7 1011.7 0.2
25/04:00pm 12.9 7.6 6.9 67 2.9 SSW 24 32 13 17 1011.6 1011.6 0.2
25/03:30pm 13.2 7.1 6.5 64 3.2 SSW 28 37 15 20 1011.3 1011.3 0.2
25/03:00pm 14.2 9.4 7.5 64 3.3 SSW 22 30 12 16 1011.0 1011.0 0.0
25/02:30pm 13.7 9.9 7.5 66 3.0 SSE 17 22 9 12 1010.8 1010.8 0.0
25/02:00pm 14.3 10.0 8.0 66 3.1 S 20 30 11 16 1010.7 1010.7 0.0
25/01:30pm 14.0 9.2 7.5 65 3.2 SSE 22 32 12 17 1010.7 1010.7 0.0
25/01:00pm 14.0 9.3 7.8 66 3.1 SSE 22 32 12 17 1010.7 1010.7 0.0
25/12:30pm 13.6 8.9 7.8 68 2.9 SSE 22 30 12 16 1010.7 1010.7 0.0
25/12:00pm 13.2 8.3 8.3 72 2.4 SSE 24 32 13 17 1010.8 1010.8 0.0
25/11:30am 12.6 8.0 8.3 75 2.1 SSE 22 32 12 17 1010.9 1010.9 0.0
25/11:00am 12.1 7.6 8.4 78 1.8 SSE 22 32 12 17 1010.9 1010.9 0.0
25/10:30am 11.6 6.7 8.3 80 1.6 SSE 24 35 13 19 1010.8 1010.8 0.0
25/10:00am 11.4 5.7 8.4 82 1.5 SSE 28 37 15 20 1010.8 1010.8 0.0
25/09:30am 10.8 6.1 9.1 89 0.8 SSE 24 39 13 21 1010.7 1010.7 0.0
25/09:00am 10.5 5.9 9.6 94 0.5 SSE 24 35 13 19 1010.6 1010.6 0.2
25/08:30am 10.1 5.1 9.6 97 0.3 SSE 26 39 14 21 1010.3 1010.3 0.2
25/08:06am 10.0 6.2 9.9 99 0.1 SSE 20 35 11 19 1010.1 1010.1 0.2
25/08:01am 10.0 6.2 9.9 99 0.1 SSE 20 30 11 16 1010.0 1010.0 0.2
25/08:00am 10.0 6.2 9.9 99 0.1 SSE 20 30 11 16 1010.0 1010.0 0.2
25/07:30am 10.3 6.8 10.1 99 0.1 S 19 26 10 14 1009.5 1009.5 0.2
25/07:20am 10.3 6.6 10.1 99 0.1 SSE 20 30 11 16 1009.3 1009.3 0.0
25/07:08am 10.5 6.4 10.0 97 0.3 S 22 32 12 17 1009.1 1009.1 0.0
25/07:00am 10.7 7.5 10.1 96 0.3 S 17 28 9 15 1009.0 1009.0 0.0
25/06:30am 10.6 8.6 10.0 96 0.3 SSW 11 15 6 8 1008.4 1008.4 0.0
25/06:00am 10.0 8.2 9.4 96 0.3 SSE 9 11 5 6 1007.9 1007.9 0.0
25/05:30am 9.8 7.9 9.2 96 0.3 SSE 9 13 5 7 1007.7 1007.7 0.0
25/05:00am 9.9 8.4 9.3 96 0.3 SSE 7 11 4 6 1007.6 1007.6 0.0
25/04:30am 10.1 8.3 9.5 96 0.3 SSE 9 11 5 6 1007.2 1007.2 0.0
25/04:00am 10.5 7.7 9.9 96 0.3 SE 15 20 8 11 1007.0 1007.0 0.0
25/03:51am 10.7 7.5 10.1 96 0.3 SE 17 20 9 11 1007.0 1007.0 0.0
25/03:35am 10.9 8.2 10.4 97 0.3 SE 15 20 8 11 1007.0 1007.0 0.0
25/03:30am 11.0 8.3 10.5 97 0.3 SSE 15 20 8 11 1007.0 1007.0 0.0
25/03:28am 11.0 8.3 10.5 97 0.3 SSE 15 20 8 11 1006.9 1006.9 0.0
25/03:06am 10.9 9.0 10.6 98 0.2 SSE 11 19 6 10 1006.8 1006.8 0.0
25/03:00am 10.9 9.4 10.6 98 0.2 SE 9 15 5 8 1006.7 1006.7 0.0
25/02:30am 10.7 9.1 10.1 96 0.3 SE 9 13 5 7 1006.6 1006.6 0.0
25/02:00am 11.0 9.7 9.9 93 0.6 SSE 7 11 4 6 1006.6 1006.6 0.0
25/01:30am 11.2 9.5 9.9 92 0.7 SE 9 13 5 7 1006.4 1006.4 0.0
25/01:00am 11.4 9.0 10.0 91 0.7 SSE 13 19 7 10 1006.3 1006.3 0.0
25/12:30am 11.6 9.3 10.3 92 0.7 SSE 13 17 7 9 1006.3 1006.3 0.0
25/12:00am 11.3 9.6 10.0 92 0.7 SSE 9 11 5 6 1006.2 1006.2 0.0
 
Date/Time
EST
Temp
°C
App
Temp
°C
Dew
Point
Rel
Hum
%
Delta-T
°C
Wind Press
QNH
hPa
Press
MSL
hPa
Rain
since 9 am
mm
Dir
 
Spd
km/h
Gust
km/h
Spd
kts
Gust
kts
24/11:30pm 11.4 9.8 10.3 93 0.6 SSE 9 11 5 6 1006.1 1006.1 0.0
24/11:00pm 11.4 9.8 10.3 93 0.6 SE 9 13 5 7 1006.0 1006.0 0.0
24/10:30pm 11.2 9.1 9.9 92 0.7 SSE 11 15 6 8 1006.0 1006.0 0.0
24/10:00pm 11.0 9.2 9.4 90 0.8 SE 9 11 5 6 1005.8 1005.8 0.0
24/09:30pm 11.5 9.1 9.9 90 0.8 SE 13 17 7 9 1005.7 1005.7 0.0
24/09:00pm 11.9 9.1 10.1 89 0.9 SE 15 20 8 11 1005.5 1005.5 0.0
24/08:30pm 11.8 8.3 10.2 90 0.8 SE 19 24 10 13 1005.3 1005.3 0.0
24/08:00pm 11.9 9.1 10.0 88 1.0 S 15 22 8 12 1005.1 1005.1 0.0
24/07:30pm 11.9 8.6 9.6 86 1.2 SSE 17 20 9 11 1004.7 1004.7 0.0
24/07:00pm 12.3 9.0 9.5 83 1.4 S 17 22 9 12 1004.5 1004.5 0.0
24/06:30pm 12.6 9.4 9.8 83 1.4 S 17 24 9 13 1004.2 1004.2 0.0
24/06:00pm 12.6 9.1 10.1 85 1.3 S 19 26 10 14 1003.7 1003.7 0.0
24/05:30pm 12.8 9.7 10.2 84 1.3 S 17 24 9 13 1003.5 1003.5 0.0

Other Formats:

Comma delimited format used in spreadsheet applications
http://www.bom.gov.au/fwo/IDT60801/IDT60801.94956.axf

JavaScript Object Notation format (JSON) in row-major order
http://www.bom.gov.au/fwo/IDT60801/IDT60801.94956.json